createdAt,value
2022-11-19T00:01:33.210Z,98842.41
2022-11-19T00:04:00.816Z,98850.00
2022-11-19T00:06:29.760Z,98848.41
2022-11-19T00:08:57.437Z,98853.69
2022-11-19T00:11:41.050Z,98845.22
2022-11-19T00:14:08.871Z,98845.97
2022-11-19T00:16:36.887Z,98844.03
2022-11-19T00:19:05.395Z,98848.59
2022-11-19T00:21:34.635Z,98847.09
2022-11-19T00:24:02.310Z,98854.41
2022-11-19T00:26:30.006Z,98857.16
2022-11-19T00:28:57.970Z,98851.34
2022-11-19T00:31:25.815Z,98848.25
2022-11-19T00:33:54.666Z,98844.84
2022-11-19T00:36:23.008Z,98843.88
2022-11-19T00:38:52.016Z,98846.03
2022-11-19T00:41:20.540Z,98843.13
2022-11-19T00:43:48.516Z,98842.31
2022-11-19T00:46:17.916Z,98841.00
2022-11-19T00:48:45.895Z,98841.94
2022-11-19T00:51:14.098Z,98842.22
2022-11-19T00:53:41.736Z,98844.56
2022-11-19T00:56:12.815Z,98843.97
2022-11-19T00:58:40.829Z,98840.41
2022-11-19T01:01:09.847Z,98848.56
2022-11-19T01:03:38.593Z,98850.31
2022-11-19T01:06:07.554Z,98843.63
2022-11-19T01:08:35.429Z,98844.28
2022-11-19T01:11:07.116Z,98841.66
2022-11-19T01:13:37.313Z,98844.94
2022-11-19T01:16:08.443Z,98841.94
2022-11-19T01:18:37.034Z,98839.56
2022-11-19T01:21:05.780Z,98850.28
2022-11-19T01:23:33.947Z,98852.94
2022-11-19T01:26:03.451Z,98850.28
2022-11-19T01:28:31.428Z,98841.41
2022-11-19T01:31:00.933Z,98847.88
2022-11-19T01:33:29.125Z,98847.22
2022-11-19T01:35:58.490Z,98855.84
2022-11-19T01:38:27.039Z,98853.50
2022-11-19T01:40:54.787Z,98853.25
2022-11-19T01:43:41.159Z,98861.69
2022-11-19T01:46:11.407Z,98848.78
2022-11-19T01:48:41.912Z,98860.94
2022-11-19T01:51:12.956Z,98860.16
2022-11-19T01:53:41.816Z,98864.59
2022-11-19T01:56:10.781Z,98865.78
2022-11-19T01:58:42.122Z,98863.16
2022-11-19T02:01:11.925Z,98863.78
2022-11-19T02:03:40.931Z,98860.34
2022-11-19T02:06:09.332Z,98860.25
2022-11-19T02:08:41.399Z,98863.50
2022-11-19T02:11:27.423Z,98866.91
2022-11-19T02:14:04.148Z,98863.91
2022-11-19T02:16:43.699Z,98856.50
2022-11-19T02:19:25.841Z,98861.28
2022-11-19T02:22:02.545Z,98862.63
2022-11-19T02:24:49.594Z,98866.09
2022-11-19T02:27:59.024Z,98857.34
2022-11-19T02:30:34.322Z,98864.59
2022-11-19T02:33:07.633Z,98867.25
2022-11-19T02:35:45.299Z,98855.06
2022-11-19T02:38:24.012Z,98853.25
2022-11-19T02:40:57.743Z,98853.53
2022-11-19T02:43:32.675Z,98862.03
2022-11-19T02:46:07.512Z,98855.66
2022-11-19T02:48:39.223Z,98853.66
2022-11-19T02:51:09.045Z,98861.94
2022-11-19T02:53:37.069Z,98862.44
2022-11-19T02:56:13.569Z,98858.38
2022-11-19T02:59:02.439Z,98855.13
2022-11-19T03:02:06.186Z,98861.28
2022-11-19T03:04:34.112Z,98855.41
2022-11-19T03:07:06.364Z,98859.03
2022-11-19T03:09:37.530Z,98862.97
2022-11-19T03:12:12.313Z,98856.38
2022-11-19T03:15:07.125Z,98855.88
2022-11-19T03:17:49.323Z,98861.69
2022-11-19T03:20:23.541Z,98866.66
2022-11-19T03:22:55.452Z,98866.66
2022-11-19T03:25:29.836Z,98862.66
2022-11-19T03:28:03.084Z,98856.25
2022-11-19T03:30:31.688Z,98863.31
2022-11-19T03:33:04.760Z,98865.84
2022-11-19T03:35:37.742Z,98861.38
2022-11-19T03:38:09.401Z,98863.03
2022-11-19T03:40:38.092Z,98867.59
2022-11-19T03:43:09.263Z,98871.22
2022-11-19T03:45:41.348Z,98871.97
2022-11-19T03:48:12.396Z,98870.94
2022-11-19T03:50:48.632Z,98873.22
2022-11-19T03:53:16.700Z,98890.13
2022-11-19T03:55:47.981Z,98874.97
2022-11-19T03:58:15.975Z,98884.25
2022-11-19T04:00:44.693Z,98883.75
2022-11-19T04:03:13.728Z,98881.94
2022-11-19T04:05:41.337Z,98882.88
2022-11-19T04:08:08.943Z,98885.81
2022-11-19T04:10:37.017Z,98890.00
2022-11-19T04:13:04.912Z,98887.63
2022-11-19T04:15:32.539Z,98890.22
2022-11-19T04:18:01.247Z,98896.22
2022-11-19T04:20:30.388Z,98897.84
2022-11-19T04:22:58.035Z,98896.66
2022-11-19T04:25:25.683Z,98897.31
2022-11-19T04:27:53.382Z,98905.47
2022-11-19T04:30:21.456Z,98900.94
2022-11-19T04:32:49.216Z,98902.63
2022-11-19T04:35:18.159Z,98901.22
2022-11-19T04:37:47.230Z,98902.69
2022-11-19T04:40:14.900Z,98905.22
2022-11-19T04:42:42.508Z,98907.84
2022-11-19T04:45:11.576Z,98912.72
2022-11-19T04:47:39.397Z,98915.34
2022-11-19T04:50:08.153Z,98912.09
2022-11-19T04:52:40.612Z,98911.09
2022-11-19T04:55:11.511Z,98906.31
2022-11-19T04:57:39.611Z,98918.56
2022-11-19T05:00:09.097Z,98913.66
2022-11-19T05:02:36.961Z,98908.59
2022-11-19T05:05:05.031Z,98907.09
2022-11-19T05:07:32.730Z,98907.97
2022-11-19T05:10:00.412Z,98922.78
2022-11-19T05:12:29.404Z,98920.81
2022-11-19T05:14:57.174Z,98921.09
2022-11-19T05:17:24.863Z,98916.13
2022-11-19T05:19:52.492Z,98907.53
2022-11-19T05:22:20.103Z,98921.53
2022-11-19T05:24:47.816Z,98920.53
2022-11-19T05:27:15.895Z,98916.94
2022-11-19T05:29:44.953Z,98917.53
2022-11-19T05:32:12.686Z,98916.94
2022-11-19T05:34:40.339Z,98917.97
2022-11-19T05:37:08.001Z,98921.97
2022-11-19T05:39:35.852Z,98929.69
2022-11-19T05:42:03.541Z,98925.72
2022-11-19T05:44:31.210Z,98929.44
2022-11-19T05:47:00.145Z,98926.50
2022-11-19T05:49:27.852Z,98933.91
2022-11-19T05:51:55.462Z,98936.59
2022-11-19T05:54:23.197Z,98932.81
2022-11-19T05:56:52.073Z,98931.41
2022-11-19T05:59:20.597Z,98934.50
2022-11-19T06:01:48.677Z,98928.53
2022-11-19T06:04:17.719Z,98935.81
2022-11-19T06:06:45.514Z,98941.28
2022-11-19T06:09:13.160Z,98948.06
2022-11-19T06:11:50.484Z,98954.06
2022-11-19T06:14:22.187Z,98947.06
2022-11-19T06:16:50.098Z,98952.78
2022-11-19T06:19:19.667Z,98952.44
2022-11-19T06:21:48.071Z,98947.97
2022-11-19T06:24:16.151Z,98963.09
2022-11-19T06:26:44.246Z,98960.31
2022-11-19T06:29:14.344Z,98960.53
2022-11-19T06:31:42.121Z,98957.63
2022-11-19T06:34:10.260Z,98960.69
2022-11-19T06:36:42.953Z,98967.91
2022-11-19T06:39:12.646Z,98964.97
2022-11-19T06:41:40.250Z,98969.25
2022-11-19T06:44:07.941Z,98968.75
2022-11-19T06:46:35.715Z,98970.03
2022-11-19T06:49:05.599Z,98969.53
2022-11-19T06:51:33.301Z,98972.06
2022-11-19T06:54:02.235Z,98971.53
2022-11-19T06:56:29.912Z,98980.09
2022-11-19T06:58:59.072Z,98975.03
2022-11-19T07:01:27.001Z,98976.00
2022-11-19T07:03:54.715Z,98986.22
2022-11-19T07:06:22.378Z,98982.72
2022-11-19T07:08:50.028Z,98992.47
2022-11-19T07:11:27.840Z,98984.38
2022-11-19T07:13:59.485Z,98992.28
2022-11-19T07:16:30.434Z,98990.94
2022-11-19T07:18:59.812Z,98999.19
2022-11-19T07:21:28.056Z,98999.69
2022-11-19T07:23:55.850Z,99005.44
2022-11-19T07:26:25.287Z,99009.63
2022-11-19T07:28:53.001Z,99008.66
2022-11-19T07:31:21.023Z,99011.69
2022-11-19T07:33:48.928Z,99008.03
2022-11-19T07:36:18.631Z,99019.66
2022-11-19T07:38:47.146Z,99026.69
2022-11-19T07:41:40.681Z,99027.44
2022-11-19T07:44:09.874Z,99023.66
2022-11-19T07:46:37.488Z,99028.34
2022-11-19T07:49:05.300Z,99037.38
2022-11-19T07:51:33.001Z,99039.44
2022-11-19T07:54:00.626Z,99039.78
2022-11-19T07:56:28.753Z,99042.03
2022-11-19T07:58:56.402Z,99036.91
2022-11-19T08:01:25.605Z,99042.53
2022-11-19T08:03:56.796Z,99048.53
2022-11-19T08:06:28.423Z,99049.47
2022-11-19T08:08:56.682Z,99054.28
2022-11-19T08:11:25.290Z,99056.81
2022-11-19T08:13:53.094Z,99051.72
2022-11-19T08:16:34.702Z,99057.59
2022-11-19T08:19:07.104Z,99051.88
2022-11-19T08:21:34.783Z,99062.91
2022-11-19T08:24:02.520Z,99066.88
2022-11-19T08:26:31.487Z,99064.25
2022-11-19T08:28:59.240Z,99066.94
2022-11-19T08:31:28.099Z,99073.63
2022-11-19T08:33:55.785Z,99074.53
2022-11-19T08:36:24.882Z,99079.00
2022-11-19T08:38:52.510Z,99082.56
2022-11-19T08:41:37.636Z,99081.22
2022-11-19T08:44:05.891Z,99077.09
2022-11-19T08:46:33.482Z,99080.59
2022-11-19T08:49:01.351Z,99084.69
2022-11-19T08:51:30.356Z,99087.47
2022-11-19T08:53:58.179Z,99089.56
2022-11-19T08:56:26.477Z,99090.78
2022-11-19T08:58:59.852Z,99095.81
2022-11-19T09:01:30.111Z,99095.03
2022-11-19T09:04:01.163Z,99097.34
2022-11-19T09:06:30.246Z,99099.00
2022-11-19T09:08:58.363Z,99107.88
2022-11-19T09:11:26.218Z,99103.03
2022-11-19T09:13:53.950Z,99108.53
2022-11-19T09:16:21.628Z,99113.34
2022-11-19T09:18:49.267Z,99107.59
2022-11-19T09:21:16.987Z,99116.44
2022-11-19T09:23:45.952Z,99116.75
2022-11-19T09:26:15.675Z,99130.09
2022-11-19T09:28:44.026Z,99122.06
2022-11-19T09:31:14.577Z,99129.94
2022-11-19T09:33:43.748Z,99133.63
2022-11-19T09:36:12.659Z,99130.19
2022-11-19T09:38:40.924Z,99133.31
2022-11-19T09:41:32.804Z,99133.72
2022-11-19T09:44:13.549Z,99133.31
2022-11-19T09:46:47.523Z,99141.13
2022-11-19T09:49:23.175Z,99140.66
2022-11-19T09:51:58.658Z,99146.88
2022-11-19T09:54:27.440Z,99146.84
2022-11-19T09:57:00.478Z,99145.16
2022-11-19T09:59:35.181Z,99140.47
2022-11-19T10:02:05.144Z,99148.75
2022-11-19T10:04:33.399Z,99149.69
2022-11-19T10:07:11.431Z,99141.28
2022-11-19T10:10:00.356Z,99143.84
2022-11-19T10:12:54.216Z,99146.81
2022-11-19T10:15:33.127Z,99135.72
2022-11-19T10:18:13.360Z,99149.09
2022-11-19T10:21:04.022Z,99144.31
2022-11-19T10:23:43.494Z,99147.81
2022-11-19T10:26:14.983Z,99153.03
2022-11-19T10:28:51.300Z,99153.97
2022-11-19T10:31:28.610Z,99158.66
2022-11-19T10:34:02.706Z,99156.19
2022-11-19T10:36:35.218Z,99156.28
2022-11-19T10:39:07.675Z,99166.50
2022-11-19T10:41:42.459Z,99162.88
2022-11-19T10:44:35.195Z,99152.69
2022-11-19T10:47:03.484Z,99160.69
2022-11-19T10:49:31.383Z,99159.84
2022-11-19T10:51:59.420Z,99163.53
2022-11-19T10:54:29.707Z,99160.63
2022-11-19T10:56:59.743Z,99167.50
2022-11-19T10:59:31.571Z,99164.59
2022-11-19T11:02:03.424Z,99175.19
2022-11-19T11:04:31.572Z,99165.94
2022-11-19T11:07:02.445Z,99158.50
2022-11-19T11:09:35.962Z,99158.53
2022-11-19T11:12:30.408Z,99157.69
2022-11-19T11:15:02.901Z,99155.34
2022-11-19T11:17:35.081Z,99160.16
2022-11-19T11:20:06.886Z,99164.03
2022-11-19T11:22:36.783Z,99162.56
2022-11-19T11:25:07.493Z,99162.03
2022-11-19T11:27:36.765Z,99157.19
2022-11-19T11:30:18.907Z,99166.25
2022-11-19T11:32:47.311Z,99160.78
2022-11-19T11:35:32.604Z,99164.03
2022-11-19T11:38:01.328Z,99161.16
2022-11-19T11:40:30.052Z,99172.41
2022-11-19T11:42:58.513Z,99164.66
2022-11-19T11:45:32.415Z,99164.31
2022-11-19T11:48:05.839Z,99155.44
2022-11-19T11:50:33.566Z,99164.47
2022-11-19T11:53:09.820Z,99168.59
2022-11-19T11:55:38.587Z,99171.38
2022-11-19T11:58:24.330Z,99172.75
2022-11-19T12:00:55.244Z,99172.84
2022-11-19T12:03:23.180Z,99165.13
2022-11-19T12:06:02.017Z,99175.91
2022-11-19T12:08:49.902Z,99169.78
2022-11-19T12:11:23.976Z,99174.19
2022-11-19T12:13:57.726Z,99169.63
2022-11-19T12:16:40.388Z,99162.94
2022-11-19T12:19:25.424Z,99160.19
2022-11-19T12:22:01.653Z,99179.00
2022-11-19T12:24:42.224Z,99178.50
2022-11-19T12:27:20.817Z,99173.78
2022-11-19T12:30:00.188Z,99177.13
2022-11-19T12:33:08.073Z,99181.56
2022-11-19T12:35:44.365Z,99169.56
2022-11-19T12:38:36.576Z,99172.47
2022-11-19T12:41:19.419Z,99169.03
2022-11-19T12:43:54.652Z,99176.16
2022-11-19T12:46:32.312Z,99174.00
2022-11-19T12:49:35.460Z,99174.19
2022-11-19T12:52:16.220Z,99177.91
2022-11-19T12:54:53.728Z,99173.69
2022-11-19T12:57:39.607Z,99181.38
2022-11-19T13:00:13.967Z,99179.41
2022-11-19T13:02:49.384Z,99181.16
2022-11-19T13:05:22.252Z,99171.59
2022-11-19T13:07:55.384Z,99182.97
2022-11-19T13:10:26.325Z,99182.28
2022-11-19T13:12:56.828Z,99178.44
2022-11-19T13:15:29.190Z,99182.97
2022-11-19T13:18:00.872Z,99183.03
2022-11-19T13:20:40.810Z,99182.97
2022-11-19T13:23:13.947Z,99181.22
2022-11-19T13:25:45.362Z,99189.38
2022-11-19T13:28:23.470Z,99185.22
2022-11-19T13:30:53.738Z,99184.66
2022-11-19T13:33:26.470Z,99187.84
2022-11-19T13:36:06.464Z,99186.28
2022-11-19T13:38:45.094Z,99191.44
2022-11-19T13:41:17.280Z,99179.94
2022-11-19T13:44:14.326Z,99186.38
2022-11-19T13:46:45.197Z,99197.72
2022-11-19T13:49:19.663Z,99197.34
2022-11-19T13:51:50.884Z,99196.84
2022-11-19T13:54:26.084Z,99195.69
2022-11-19T13:56:56.988Z,99192.16
2022-11-19T13:59:32.315Z,99196.28
2022-11-19T14:02:32.390Z,99210.38
2022-11-19T14:05:28.700Z,99210.19
2022-11-19T14:08:19.511Z,99205.69
2022-11-19T14:11:04.035Z,99203.03
2022-11-19T14:13:46.397Z,99213.84
2022-11-19T14:16:43.765Z,99210.25
2022-11-19T14:19:32.806Z,99214.53
2022-11-19T14:22:18.570Z,99217.41
2022-11-19T14:25:17.289Z,99217.91
2022-11-19T14:27:46.507Z,99213.53
2022-11-19T14:30:19.874Z,99216.94
2022-11-19T14:32:51.188Z,99212.09
2022-11-19T14:35:34.700Z,99217.47
2022-11-19T14:38:36.586Z,99205.38
2022-11-19T14:41:23.200Z,99217.41
2022-11-19T14:44:11.522Z,99223.44
2022-11-19T14:46:46.479Z,99220.00
2022-11-19T14:49:32.877Z,99214.78
2022-11-19T14:52:01.448Z,99213.06
2022-11-19T14:54:38.116Z,99212.69
2022-11-19T14:57:17.187Z,99223.63
2022-11-19T14:59:52.092Z,99227.16
2022-11-19T15:02:29.837Z,99229.75
2022-11-19T15:05:08.514Z,99236.38
2022-11-19T15:07:40.343Z,99225.81
2022-11-19T15:10:33.761Z,99232.56
2022-11-19T15:13:28.238Z,99237.81
2022-11-19T15:15:58.872Z,99238.69
2022-11-19T15:19:11.057Z,99234.31
2022-11-19T15:21:59.658Z,99233.78
2022-11-19T15:24:45.888Z,99231.72
2022-11-19T15:27:20.991Z,99231.13
2022-11-19T15:30:06.667Z,99244.56
2022-11-19T15:32:55.241Z,99233.53
2022-11-19T15:35:39.331Z,99231.78
2022-11-19T15:38:20.237Z,99243.72
2022-11-19T15:40:50.862Z,99234.09
2022-11-19T15:43:26.505Z,99228.56
2022-11-19T15:46:01.236Z,99232.13
2022-11-19T15:48:36.379Z,99223.78
2022-11-19T15:51:05.270Z,99231.31
2022-11-19T15:53:33.552Z,99232.69
2022-11-19T15:56:04.656Z,99235.41
2022-11-19T15:58:37.728Z,99232.53
2022-11-19T16:01:09.780Z,99236.25
2022-11-19T16:03:39.564Z,99237.91
2022-11-19T16:06:11.615Z,99247.31
2022-11-19T16:08:39.514Z,99248.28
2022-11-19T16:11:25.122Z,99242.78
2022-11-19T16:14:11.279Z,99249.94
2022-11-19T16:16:58.523Z,99252.69
2022-11-19T16:19:26.466Z,99248.28
2022-11-19T16:21:58.451Z,99252.81
2022-11-19T16:24:46.349Z,99258.47
2022-11-19T16:27:21.429Z,99257.22
2022-11-19T16:29:49.161Z,99257.34
2022-11-19T16:32:20.838Z,99261.75
2022-11-19T16:34:48.870Z,99265.31
2022-11-19T16:37:18.320Z,99269.88
2022-11-19T16:39:53.477Z,99267.03
2022-11-19T16:42:26.774Z,99275.44
2022-11-19T16:44:56.279Z,99273.22
2022-11-19T16:47:30.077Z,99276.25
2022-11-19T16:50:01.776Z,99264.66
2022-11-19T16:52:40.130Z,99272.13
2022-11-19T16:55:42.742Z,99270.06
2022-11-19T16:58:17.718Z,99274.44
2022-11-19T17:00:51.234Z,99280.91
2022-11-19T17:03:39.477Z,99284.50
2022-11-19T17:06:09.681Z,99287.53
2022-11-19T17:08:38.930Z,99287.28
2022-11-19T17:11:39.765Z,99292.50
2022-11-19T17:14:24.650Z,99290.97
2022-11-19T17:16:55.501Z,99290.59
2022-11-19T17:19:32.408Z,99287.41
2022-11-19T17:22:02.332Z,99287.69
2022-11-19T17:24:32.791Z,99294.41
2022-11-19T17:27:01.105Z,99291.78
2022-11-19T17:29:28.819Z,99291.94
2022-11-19T17:31:57.384Z,99295.50
2022-11-19T17:34:32.258Z,99295.94
2022-11-19T17:37:00.208Z,99299.25
2022-11-19T17:39:28.005Z,99293.47
2022-11-19T17:42:14.671Z,99302.28
2022-11-19T17:44:42.728Z,99294.56
2022-11-19T17:47:22.408Z,99291.06
2022-11-19T17:49:52.694Z,99294.69
2022-11-19T17:52:25.303Z,99296.59
2022-11-19T17:54:54.763Z,99300.47
2022-11-19T17:57:22.860Z,99306.97
2022-11-19T17:59:50.645Z,99307.91
2022-11-19T18:02:20.350Z,99314.22
2022-11-19T18:04:49.240Z,99311.66
2022-11-19T18:07:18.316Z,99315.91
2022-11-19T18:09:46.309Z,99308.47
2022-11-19T18:12:16.213Z,99313.44
2022-11-19T18:14:44.269Z,99315.66
2022-11-19T18:17:12.901Z,99318.50
2022-11-19T18:19:40.535Z,99317.72
2022-11-19T18:22:16.864Z,99312.06
2022-11-19T18:24:47.451Z,99321.00
2022-11-19T18:27:15.507Z,99320.31
2022-11-19T18:29:46.244Z,99324.63
2022-11-19T18:32:16.686Z,99323.09
2022-11-19T18:34:44.783Z,99321.28
2022-11-19T18:37:12.820Z,99324.75
2022-11-19T18:39:41.516Z,99326.38
2022-11-19T18:42:12.513Z,99318.50
2022-11-19T18:44:41.625Z,99327.47
2022-11-19T18:47:11.260Z,99329.69
2022-11-19T18:49:39.490Z,99335.06
2022-11-19T18:52:08.914Z,99332.72
2022-11-19T18:54:37.000Z,99329.13
2022-11-19T18:57:05.141Z,99331.91
2022-11-19T18:59:34.268Z,99330.25
2022-11-19T19:02:02.217Z,99334.94
2022-11-19T19:04:30.161Z,99332.59
2022-11-19T19:06:59.271Z,99337.66
2022-11-19T19:09:27.215Z,99338.94
2022-11-19T19:12:13.737Z,99355.88
2022-11-19T19:14:44.282Z,99348.00
2022-11-19T19:17:12.440Z,99342.94
2022-11-19T19:19:40.322Z,99345.00
2022-11-19T19:22:08.763Z,99349.25
2022-11-19T19:24:36.803Z,99348.88
2022-11-19T19:27:05.382Z,99352.16
2022-11-19T19:29:33.115Z,99353.28
2022-11-19T19:32:02.393Z,99358.75
2022-11-19T19:34:30.900Z,99353.53
2022-11-19T19:36:58.656Z,99359.97
2022-11-19T19:39:26.396Z,99357.50
2022-11-19T19:41:54.129Z,99358.06
2022-11-19T19:44:21.831Z,99357.66
2022-11-19T19:46:49.754Z,99354.50
2022-11-19T19:49:19.534Z,99364.44
2022-11-19T19:51:48.140Z,99359.06
2022-11-19T19:54:15.933Z,99360.00
2022-11-19T19:56:43.857Z,99359.53
2022-11-19T19:59:13.760Z,99362.34
2022-11-19T20:01:44.685Z,99357.97
2022-11-19T20:04:12.824Z,99358.75
2022-11-19T20:06:46.221Z,99363.19
2022-11-19T20:09:14.206Z,99353.41
2022-11-19T20:11:42.037Z,99358.88
2022-11-19T20:14:10.834Z,99353.78
2022-11-19T20:16:41.387Z,99360.84
2022-11-19T20:19:12.848Z,99365.91
2022-11-19T20:21:42.036Z,99369.13
2022-11-19T20:24:12.879Z,99359.59
2022-11-19T20:26:41.968Z,99374.44
2022-11-19T20:29:12.676Z,99375.34
2022-11-19T20:31:40.809Z,99375.41
2022-11-19T20:34:08.505Z,99380.50
2022-11-19T20:36:37.098Z,99376.81
2022-11-19T20:39:07.326Z,99387.09
2022-11-19T20:41:53.103Z,99387.94
2022-11-19T20:44:22.351Z,99383.75
2022-11-19T20:46:52.427Z,99388.34
2022-11-19T20:49:22.564Z,99389.03
2022-11-19T20:51:51.526Z,99391.53
2022-11-19T20:54:21.816Z,99386.25
2022-11-19T20:56:49.846Z,99386.94
2022-11-19T20:59:17.792Z,99389.59
2022-11-19T21:01:45.957Z,99384.47
2022-11-19T21:04:13.783Z,99390.00
2022-11-19T21:06:41.639Z,99387.78
2022-11-19T21:09:09.599Z,99397.75
2022-11-19T21:11:38.716Z,99398.00
2022-11-19T21:14:06.516Z,99393.09
2022-11-19T21:16:34.250Z,99397.38
2022-11-19T21:19:02.212Z,99397.75
2022-11-19T21:21:30.082Z,99396.94
2022-11-19T21:23:57.796Z,99396.81
2022-11-19T21:26:28.072Z,99396.34
2022-11-19T21:28:58.481Z,99388.25
2022-11-19T21:31:38.036Z,99387.69
2022-11-19T21:34:06.789Z,99383.72
2022-11-19T21:36:35.023Z,99385.81
2022-11-19T21:39:02.901Z,99394.13
2022-11-19T21:41:30.739Z,99384.53
2022-11-19T21:44:00.129Z,99385.38
2022-11-19T21:46:27.949Z,99382.84
2022-11-19T21:48:55.774Z,99382.25
2022-11-19T21:51:25.179Z,99387.66
2022-11-19T21:53:55.104Z,99383.59
2022-11-19T21:56:22.995Z,99379.94
2022-11-19T21:58:50.926Z,99380.28
2022-11-19T22:01:20.443Z,99377.91
2022-11-19T22:03:48.790Z,99370.50
2022-11-19T22:06:16.662Z,99367.47
2022-11-19T22:08:44.429Z,99372.69
2022-11-19T22:11:31.849Z,99365.81
2022-11-19T22:14:02.033Z,99363.00
2022-11-19T22:16:36.732Z,99365.78
2022-11-19T22:19:05.572Z,99354.03
2022-11-19T22:21:34.086Z,99360.84
2022-11-19T22:24:02.227Z,99359.97
2022-11-19T22:26:30.579Z,99355.38
2022-11-19T22:28:58.622Z,99360.66
2022-11-19T22:31:26.927Z,99357.81
2022-11-19T22:33:56.298Z,99350.91
2022-11-19T22:36:24.500Z,99364.69
2022-11-19T22:38:52.927Z,99367.00
2022-11-19T22:41:22.236Z,99365.47
2022-11-19T22:43:50.298Z,99366.16
2022-11-19T22:46:19.246Z,99359.78
2022-11-19T22:48:47.953Z,99356.16
2022-11-19T22:51:20.085Z,99356.16
2022-11-19T22:53:48.581Z,99356.03
2022-11-19T22:56:18.124Z,99358.28
2022-11-19T22:58:46.316Z,99356.31
2022-11-19T23:01:17.805Z,99365.59
2022-11-19T23:03:45.825Z,99352.59
2022-11-19T23:06:13.546Z,99355.59
2022-11-19T23:08:42.769Z,99354.50
2022-11-19T23:11:10.619Z,99341.78
2022-11-19T23:13:39.448Z,99345.78
2022-11-19T23:16:09.912Z,99344.00
2022-11-19T23:18:39.553Z,99337.06
2022-11-19T23:21:09.792Z,99346.75
2022-11-19T23:23:37.984Z,99345.09
2022-11-19T23:26:08.966Z,99348.16
2022-11-19T23:28:37.850Z,99342.88
2022-11-19T23:31:07.668Z,99334.50
2022-11-19T23:33:35.388Z,99351.06
2022-11-19T23:36:04.643Z,99356.31
2022-11-19T23:38:32.739Z,99347.06
2022-11-19T23:41:00.925Z,99350.50
2022-11-19T23:43:30.488Z,99343.06
2022-11-19T23:46:04.950Z,99353.13
2022-11-19T23:48:32.846Z,99351.72
2022-11-19T23:51:02.215Z,99345.94
2022-11-19T23:53:29.908Z,99354.06
2022-11-19T23:55:57.906Z,99347.06
2022-11-19T23:58:25.696Z,99339.34
